createdAt,value
2022-11-10T00:07:55.173Z,100.00
2022-11-10T01:05:48.455Z,100.00
2022-11-10T01:10:25.432Z,100.00
2022-11-10T02:54:06.339Z,100.00
2022-11-10T04:51:11.929Z,100.00
2022-11-10T06:38:05.250Z,100.00
2022-11-10T06:54:24.750Z,100.00
2022-11-10T07:14:49.577Z,100.00
2022-11-10T07:26:29.805Z,100.00
2022-11-10T08:36:20.908Z,100.00
2022-11-10T08:39:37.729Z,100.00
2022-11-10T08:43:51.760Z,100.00
2022-11-10T08:47:03.121Z,100.00
2022-11-10T09:07:56.575Z,94.32
2022-11-10T09:47:04.106Z,87.24
2022-11-10T09:50:59.698Z,87.08
2022-11-10T09:54:10.683Z,95.66
2022-11-10T11:16:07.944Z,73.15
2022-11-10T11:36:03.488Z,74.62
2022-11-10T11:51:01.894Z,74.47
2022-11-10T12:14:37.467Z,73.21
2022-11-10T12:18:25.313Z,71.24
2022-11-10T12:33:51.806Z,65.36
2022-11-10T12:36:42.166Z,69.08
2022-11-10T12:40:02.419Z,65.58
2022-11-10T12:43:08.523Z,65.92
2022-11-10T12:46:07.673Z,67.33
2022-11-10T12:49:55.338Z,67.39
2022-11-10T12:53:13.419Z,72.75
2022-11-10T12:56:57.794Z,70.60
2022-11-10T13:00:39.778Z,72.37
2022-11-10T13:03:55.027Z,73.07
2022-11-10T13:07:30.085Z,72.16
2022-11-10T13:10:35.768Z,71.97
2022-11-10T13:18:56.890Z,70.60
2022-11-10T13:22:06.203Z,73.61
2022-11-10T13:28:51.111Z,76.45
2022-11-10T13:31:44.593Z,74.49
2022-11-10T13:34:43.341Z,74.92
2022-11-10T13:43:29.435Z,72.93
2022-11-10T13:46:33.250Z,72.33
2022-11-10T13:49:46.126Z,69.33
2022-11-10T13:55:42.477Z,70.47
2022-11-10T13:58:36.863Z,71.91
2022-11-10T14:01:30.819Z,73.34
2022-11-10T14:05:21.094Z,73.35
2022-11-10T14:09:24.191Z,70.12
2022-11-10T14:15:40.268Z,73.00
2022-11-10T14:18:42.680Z,74.61
2022-11-10T14:24:25.525Z,75.62
2022-11-10T14:27:22.253Z,76.74
2022-11-10T14:30:24.896Z,77.17
2022-11-10T14:33:23.299Z,75.89
2022-11-10T14:36:15.375Z,78.59
2022-11-10T14:39:24.510Z,78.01
2022-11-10T14:42:20.612Z,76.33
2022-11-10T14:45:24.188Z,78.03
2022-11-10T14:48:34.350Z,83.04
2022-11-10T14:51:24.282Z,82.67
2022-11-10T14:54:20.398Z,83.34
2022-11-10T14:57:13.870Z,85.51
2022-11-10T15:00:11.764Z,89.56
2022-11-10T15:03:08.794Z,92.10
2022-11-10T15:07:04.408Z,94.21
2022-11-10T15:10:24.855Z,96.50
2022-11-10T15:13:12.899Z,98.05
2022-11-10T15:16:23.324Z,98.70
2022-11-10T15:19:48.572Z,99.98
2022-11-10T15:22:41.928Z,100.00
2022-11-10T15:25:40.713Z,100.00
2022-11-10T15:28:39.166Z,100.00
2022-11-10T15:31:33.733Z,100.00
2022-11-10T15:34:53.719Z,100.00
2022-11-10T16:07:49.670Z,100.00
2022-11-10T16:16:18.067Z,100.00
2022-11-10T16:19:12.915Z,100.00
2022-11-10T16:22:01.033Z,100.00
2022-11-10T16:25:02.766Z,100.00
2022-11-10T16:27:51.150Z,100.00
2022-11-10T16:30:41.135Z,100.00
2022-11-10T16:33:30.129Z,100.00
2022-11-10T16:38:58.869Z,100.00
2022-11-10T16:41:59.493Z,100.00
2022-11-10T16:44:48.142Z,100.00
2022-11-10T16:47:36.977Z,100.00
2022-11-10T16:50:38.582Z,100.00
2022-11-10T16:56:46.843Z,100.00
2022-11-10T16:59:38.235Z,100.00
2022-11-10T17:13:59.880Z,100.00
2022-11-10T17:20:38.537Z,100.00
2022-11-10T17:23:28.261Z,100.00
2022-11-10T17:26:21.254Z,100.00
2022-11-10T17:29:23.387Z,100.00
2022-11-10T17:32:16.473Z,100.00
2022-11-10T17:35:24.482Z,100.00
2022-11-10T17:38:24.634Z,100.00
2022-11-10T17:41:20.857Z,100.00
2022-11-10T17:44:18.387Z,100.00
2022-11-10T17:47:06.949Z,100.00
2022-11-10T17:50:13.320Z,100.00
2022-11-10T17:53:21.926Z,100.00
2022-11-10T17:56:16.820Z,100.00
2022-11-10T17:59:08.357Z,100.00
2022-11-10T18:02:03.975Z,100.00
2022-11-10T18:04:53.102Z,100.00
2022-11-10T18:13:02.907Z,100.00
2022-11-10T18:15:54.728Z,100.00
2022-11-10T18:18:45.630Z,100.00
2022-11-10T18:21:34.841Z,100.00
2022-11-10T18:24:26.818Z,100.00
2022-11-10T18:27:15.322Z,100.00
2022-11-10T18:30:09.881Z,100.00
2022-11-10T18:32:58.571Z,100.00
2022-11-10T18:36:00.814Z,100.00
2022-11-10T18:38:51.819Z,100.00
2022-11-10T18:41:51.068Z,100.00
2022-11-10T18:44:43.968Z,100.00
2022-11-10T18:47:32.327Z,100.00
2022-11-10T18:50:20.808Z,100.00
2022-11-10T18:53:10.304Z,100.00
2022-11-10T18:56:16.775Z,100.00
2022-11-10T20:35:59.440Z,100.00
2022-11-10T20:45:36.922Z,100.00
2022-11-10T20:48:59.884Z,100.00
2022-11-10T20:55:26.035Z,100.00
2022-11-10T22:54:28.651Z,100.00
2022-11-10T23:01:50.905Z,100.00
2022-11-10T23:28:20.724Z,100.00
2022-11-10T23:40:01.747Z,100.00
